sensor_id;sensor_type;location;lat;lon;timestamp;P1;durP1;ratioP1;P2;durP2;ratioP2
5912;SDS011;2982;42.684;23.356;2024-03-08T00:00:46;1.73;;;1.63;;
5912;SDS011;2982;42.684;23.356;2024-03-08T00:03:11;1.53;;;1.33;;
5912;SDS011;2982;42.684;23.356;2024-03-08T00:05:36;1.50;;;1.40;;
5912;SDS011;2982;42.684;23.356;2024-03-08T00:08:02;2.63;;;1.33;;
5912;SDS011;2982;42.684;23.356;2024-03-08T00:10:27;1.53;;;1.43;;
5912;SDS011;2982;42.684;23.356;2024-03-08T00:12:53;2.27;;;1.97;;
5912;SDS011;2982;42.684;23.356;2024-03-08T00:15:18;1.63;;;1.43;;
5912;SDS011;2982;42.684;23.356;2024-03-08T00:17:44;3.07;;;2.83;;
5912;SDS011;2982;42.684;23.356;2024-03-08T00:20:10;2.70;;;2.50;;
5912;SDS011;2982;42.684;23.356;2024-03-08T00:22:36;2.83;;;2.63;;
5912;SDS011;2982;42.684;23.356;2024-03-08T00:25:04;3.03;;;2.70;;
5912;SDS011;2982;42.684;23.356;2024-03-08T00:27:31;4.10;;;3.10;;
5912;SDS011;2982;42.684;23.356;2024-03-08T00:29:57;2.90;;;2.60;;
5912;SDS011;2982;42.684;23.356;2024-03-08T00:32:22;2.90;;;2.67;;
5912;SDS011;2982;42.684;23.356;2024-03-08T00:34:48;5.30;;;3.00;;
5912;SDS011;2982;42.684;23.356;2024-03-08T00:37:13;3.33;;;3.03;;
5912;SDS011;2982;42.684;23.356;2024-03-08T00:39:38;2.40;;;2.20;;
5912;SDS011;2982;42.684;23.356;2024-03-08T00:42:04;2.10;;;2.00;;
5912;SDS011;2982;42.684;23.356;2024-03-08T00:44:29;2.47;;;2.27;;
5912;SDS011;2982;42.684;23.356;2024-03-08T00:46:55;1.20;;;1.10;;
5912;SDS011;2982;42.684;23.356;2024-03-08T00:49:20;1.20;;;1.00;;
5912;SDS011;2982;42.684;23.356;2024-03-08T00:51:45;0.80;;;0.73;;
5912;SDS011;2982;42.684;23.356;2024-03-08T00:54:10;0.70;;;0.70;;
5912;SDS011;2982;42.684;23.356;2024-03-08T00:56:36;0.80;;;0.70;;
5912;SDS011;2982;42.684;23.356;2024-03-08T00:59:01;0.93;;;0.80;;
5912;SDS011;2982;42.684;23.356;2024-03-08T01:01:26;1.20;;;1.00;;
5912;SDS011;2982;42.684;23.356;2024-03-08T01:03:52;1.97;;;0.77;;
5912;SDS011;2982;42.684;23.356;2024-03-08T01:06:17;0.80;;;0.80;;
5912;SDS011;2982;42.684;23.356;2024-03-08T01:08:42;0.80;;;0.80;;
5912;SDS011;2982;42.684;23.356;2024-03-08T01:11:08;0.70;;;0.70;;
5912;SDS011;2982;42.684;23.356;2024-03-08T01:13:33;1.23;;;0.90;;
5912;SDS011;2982;42.684;23.356;2024-03-08T01:16:00;0.93;;;0.73;;
5912;SDS011;2982;42.684;23.356;2024-03-08T01:18:26;1.10;;;1.00;;
5912;SDS011;2982;42.684;23.356;2024-03-08T01:20:51;1.00;;;0.90;;
5912;SDS011;2982;42.684;23.356;2024-03-08T01:23:16;1.20;;;1.10;;
5912;SDS011;2982;42.684;23.356;2024-03-08T01:25:42;1.73;;;1.20;;
5912;SDS011;2982;42.684;23.356;2024-03-08T01:28:07;1.20;;;1.00;;
5912;SDS011;2982;42.684;23.356;2024-03-08T01:30:32;1.43;;;1.33;;
5912;SDS011;2982;42.684;23.356;2024-03-08T01:32:58;1.63;;;1.07;;
5912;SDS011;2982;42.684;23.356;2024-03-08T01:35:23;1.33;;;1.20;;
5912;SDS011;2982;42.684;23.356;2024-03-08T01:37:49;1.50;;;1.40;;
5912;SDS011;2982;42.684;23.356;2024-03-08T01:40:14;1.60;;;1.47;;
5912;SDS011;2982;42.684;23.356;2024-03-08T01:42:39;2.00;;;1.33;;
5912;SDS011;2982;42.684;23.356;2024-03-08T01:45:05;0.90;;;0.90;;
5912;SDS011;2982;42.684;23.356;2024-03-08T01:47:31;1.17;;;1.07;;
5912;SDS011;2982;42.684;23.356;2024-03-08T01:49:57;0.80;;;0.77;;
5912;SDS011;2982;42.684;23.356;2024-03-08T01:52:23;2.40;;;1.10;;
5912;SDS011;2982;42.684;23.356;2024-03-08T01:54:49;2.47;;;2.00;;
5912;SDS011;2982;42.684;23.356;2024-03-08T01:57:14;0.70;;;0.70;;
5912;SDS011;2982;42.684;23.356;2024-03-08T01:59:40;1.20;;;1.10;;
5912;SDS011;2982;42.684;23.356;2024-03-08T02:02:05;0.90;;;0.90;;
5912;SDS011;2982;42.684;23.356;2024-03-08T02:04:32;1.40;;;1.30;;
5912;SDS011;2982;42.684;23.356;2024-03-08T02:06:58;1.40;;;1.30;;
5912;SDS011;2982;42.684;23.356;2024-03-08T02:09:23;1.23;;;1.13;;
5912;SDS011;2982;42.684;23.356;2024-03-08T02:11:49;1.23;;;1.13;;
5912;SDS011;2982;42.684;23.356;2024-03-08T02:14:14;1.93;;;1.50;;
5912;SDS011;2982;42.684;23.356;2024-03-08T02:16:40;1.03;;;0.93;;
5912;SDS011;2982;42.684;23.356;2024-03-08T02:19:05;2.90;;;1.20;;
5912;SDS011;2982;42.684;23.356;2024-03-08T02:21:30;4.73;;;4.43;;
5912;SDS011;2982;42.684;23.356;2024-03-08T02:23:56;1.63;;;1.53;;
5912;SDS011;2982;42.684;23.356;2024-03-08T02:26:21;0.80;;;0.80;;
5912;SDS011;2982;42.684;23.356;2024-03-08T02:28:46;0.73;;;0.60;;
5912;SDS011;2982;42.684;23.356;2024-03-08T02:31:12;1.00;;;0.90;;
5912;SDS011;2982;42.684;23.356;2024-03-08T02:33:37;0.90;;;0.90;;
5912;SDS011;2982;42.684;23.356;2024-03-08T02:36:03;0.90;;;0.70;;
5912;SDS011;2982;42.684;23.356;2024-03-08T02:38:28;0.70;;;0.70;;
5912;SDS011;2982;42.684;23.356;2024-03-08T02:40:54;1.17;;;1.07;;
5912;SDS011;2982;42.684;23.356;2024-03-08T02:43:19;1.20;;;1.10;;
5912;SDS011;2982;42.684;23.356;2024-03-08T02:45:46;1.20;;;1.20;;
5912;SDS011;2982;42.684;23.356;2024-03-08T02:48:12;0.97;;;0.97;;
5912;SDS011;2982;42.684;23.356;2024-03-08T02:50:38;1.57;;;1.20;;
5912;SDS011;2982;42.684;23.356;2024-03-08T02:53:04;1.63;;;0.93;;
5912;SDS011;2982;42.684;23.356;2024-03-08T02:55:29;0.90;;;0.80;;
5912;SDS011;2982;42.684;23.356;2024-03-08T02:57:55;1.30;;;0.53;;
5912;SDS011;2982;42.684;23.356;2024-03-08T03:00:21;0.70;;;0.60;;
5912;SDS011;2982;42.684;23.356;2024-03-08T03:02:46;0.70;;;0.60;;
5912;SDS011;2982;42.684;23.356;2024-03-08T03:05:12;0.40;;;0.40;;
5912;SDS011;2982;42.684;23.356;2024-03-08T03:07:37;0.37;;;0.30;;
5912;SDS011;2982;42.684;23.356;2024-03-08T03:10:03;0.60;;;0.60;;
5912;SDS011;2982;42.684;23.356;2024-03-08T03:12:30;1.17;;;0.40;;
5912;SDS011;2982;42.684;23.356;2024-03-08T03:14:56;0.40;;;0.40;;
5912;SDS011;2982;42.684;23.356;2024-03-08T03:17:23;0.40;;;0.40;;
5912;SDS011;2982;42.684;23.356;2024-03-08T03:19:48;0.60;;;0.50;;
5912;SDS011;2982;42.684;23.356;2024-03-08T03:22:14;0.47;;;0.47;;
5912;SDS011;2982;42.684;23.356;2024-03-08T03:24:39;0.50;;;0.50;;
5912;SDS011;2982;42.684;23.356;2024-03-08T03:27:04;0.40;;;0.40;;
5912;SDS011;2982;42.684;23.356;2024-03-08T03:29:30;0.40;;;0.40;;
5912;SDS011;2982;42.684;23.356;2024-03-08T03:31:55;0.87;;;0.60;;
5912;SDS011;2982;42.684;23.356;2024-03-08T03:34:20;0.50;;;0.50;;
5912;SDS011;2982;42.684;23.356;2024-03-08T03:36:46;0.53;;;0.50;;
5912;SDS011;2982;42.684;23.356;2024-03-08T03:39:11;0.50;;;0.40;;
5912;SDS011;2982;42.684;23.356;2024-03-08T03:41:36;0.50;;;0.50;;
5912;SDS011;2982;42.684;23.356;2024-03-08T03:44:02;1.43;;;0.40;;
5912;SDS011;2982;42.684;23.356;2024-03-08T03:46:27;0.53;;;0.50;;
5912;SDS011;2982;42.684;23.356;2024-03-08T03:48:53;0.60;;;0.60;;
5912;SDS011;2982;42.684;23.356;2024-03-08T03:51:19;3.30;;;0.43;;
5912;SDS011;2982;42.684;23.356;2024-03-08T03:53:44;1.10;;;1.00;;
5912;SDS011;2982;42.684;23.356;2024-03-08T03:56:10;1.20;;;0.93;;
5912;SDS011;2982;42.684;23.356;2024-03-08T03:58:35;0.60;;;0.60;;
5912;SDS011;2982;42.684;23.356;2024-03-08T04:01:00;0.63;;;0.63;;
5912;SDS011;2982;42.684;23.356;2024-03-08T04:03:25;0.40;;;0.40;;
5912;SDS011;2982;42.684;23.356;2024-03-08T04:05:51;0.73;;;0.50;;
5912;SDS011;2982;42.684;23.356;2024-03-08T04:08:16;0.30;;;0.30;;
5912;SDS011;2982;42.684;23.356;2024-03-08T04:10:41;0.60;;;0.60;;
5912;SDS011;2982;42.684;23.356;2024-03-08T04:13:07;0.57;;;0.57;;
5912;SDS011;2982;42.684;23.356;2024-03-08T04:15:32;0.80;;;0.70;;
5912;SDS011;2982;42.684;23.356;2024-03-08T04:17:58;1.00;;;0.60;;
5912;SDS011;2982;42.684;23.356;2024-03-08T04:20:23;2.13;;;0.70;;
5912;SDS011;2982;42.684;23.356;2024-03-08T04:22:48;2.27;;;0.70;;
5912;SDS011;2982;42.684;23.356;2024-03-08T04:25:14;0.77;;;0.67;;
5912;SDS011;2982;42.684;23.356;2024-03-08T04:27:39;1.03;;;0.90;;
5912;SDS011;2982;42.684;23.356;2024-03-08T04:30:05;0.80;;;0.77;;
5912;SDS011;2982;42.684;23.356;2024-03-08T04:32:31;1.90;;;1.00;;
5912;SDS011;2982;42.684;23.356;2024-03-08T04:34:56;0.73;;;0.73;;
5912;SDS011;2982;42.684;23.356;2024-03-08T04:37:21;1.33;;;1.20;;
5912;SDS011;2982;42.684;23.356;2024-03-08T04:39:47;1.60;;;0.90;;
5912;SDS011;2982;42.684;23.356;2024-03-08T04:42:13;1.20;;;1.10;;
5912;SDS011;2982;42.684;23.356;2024-03-08T04:45:04;0.73;;;0.73;;
5912;SDS011;2982;42.684;23.356;2024-03-08T04:47:30;1.30;;;0.90;;
5912;SDS011;2982;42.684;23.356;2024-03-08T04:49:55;1.10;;;1.00;;
5912;SDS011;2982;42.684;23.356;2024-03-08T04:52:22;2.43;;;0.90;;
5912;SDS011;2982;42.684;23.356;2024-03-08T04:54:47;2.40;;;0.87;;
5912;SDS011;2982;42.684;23.356;2024-03-08T04:57:14;2.13;;;1.03;;
5912;SDS011;2982;42.684;23.356;2024-03-08T04:59:39;1.37;;;1.03;;
5912;SDS011;2982;42.684;23.356;2024-03-08T05:02:04;1.40;;;1.00;;
5912;SDS011;2982;42.684;23.356;2024-03-08T05:04:30;1.40;;;1.30;;
5912;SDS011;2982;42.684;23.356;2024-03-08T05:06:55;1.20;;;1.13;;
5912;SDS011;2982;42.684;23.356;2024-03-08T05:09:21;1.57;;;1.47;;
5912;SDS011;2982;42.684;23.356;2024-03-08T05:11:46;1.30;;;1.20;;
5912;SDS011;2982;42.684;23.356;2024-03-08T05:14:14;1.93;;;1.00;;
5912;SDS011;2982;42.684;23.356;2024-03-08T05:16:39;1.07;;;0.90;;
5912;SDS011;2982;42.684;23.356;2024-03-08T05:19:05;1.30;;;1.20;;
5912;SDS011;2982;42.684;23.356;2024-03-08T05:21:30;2.83;;;1.23;;
5912;SDS011;2982;42.684;23.356;2024-03-08T05:23:57;1.77;;;1.50;;
5912;SDS011;2982;42.684;23.356;2024-03-08T05:26:22;2.53;;;1.13;;
5912;SDS011;2982;42.684;23.356;2024-03-08T05:28:48;3.53;;;1.17;;
5912;SDS011;2982;42.684;23.356;2024-03-08T05:31:22;1.57;;;1.20;;
5912;SDS011;2982;42.684;23.356;2024-03-08T05:33:48;5.50;;;1.67;;
5912;SDS011;2982;42.684;23.356;2024-03-08T05:36:16;2.50;;;2.30;;
5912;SDS011;2982;42.684;23.356;2024-03-08T05:38:43;3.90;;;2.77;;
5912;SDS011;2982;42.684;23.356;2024-03-08T05:41:09;4.57;;;3.10;;
5912;SDS011;2982;42.684;23.356;2024-03-08T05:43:34;3.23;;;2.93;;
5912;SDS011;2982;42.684;23.356;2024-03-08T05:46:00;4.17;;;3.33;;
5912;SDS011;2982;42.684;23.356;2024-03-08T05:48:25;7.03;;;3.53;;
5912;SDS011;2982;42.684;23.356;2024-03-08T05:50:50;3.93;;;3.53;;
5912;SDS011;2982;42.684;23.356;2024-03-08T05:53:16;4.97;;;3.40;;
5912;SDS011;2982;42.684;23.356;2024-03-08T05:55:41;5.57;;;3.20;;
5912;SDS011;2982;42.684;23.356;2024-03-08T05:58:07;3.67;;;3.20;;
5912;SDS011;2982;42.684;23.356;2024-03-08T06:00:34;8.43;;;4.67;;
5912;SDS011;2982;42.684;23.356;2024-03-08T06:02:59;5.80;;;4.43;;
5912;SDS011;2982;42.684;23.356;2024-03-08T06:05:25;5.40;;;4.37;;
5912;SDS011;2982;42.684;23.356;2024-03-08T06:07:51;6.17;;;4.80;;
5912;SDS011;2982;42.684;23.356;2024-03-08T06:10:17;7.27;;;5.20;;
5912;SDS011;2982;42.684;23.356;2024-03-08T06:12:42;6.87;;;5.07;;
5912;SDS011;2982;42.684;23.356;2024-03-08T06:15:08;7.30;;;6.13;;
5912;SDS011;2982;42.684;23.356;2024-03-08T06:17:34;11.67;;;7.30;;
5912;SDS011;2982;42.684;23.356;2024-03-08T06:20:00;9.83;;;6.13;;
5912;SDS011;2982;42.684;23.356;2024-03-08T06:22:25;8.57;;;6.53;;
5912;SDS011;2982;42.684;23.356;2024-03-08T06:24:50;9.27;;;6.23;;
5912;SDS011;2982;42.684;23.356;2024-03-08T06:27:16;7.93;;;6.30;;
5912;SDS011;2982;42.684;23.356;2024-03-08T06:29:41;4.60;;;4.20;;
5912;SDS011;2982;42.684;23.356;2024-03-08T06:32:06;5.47;;;4.87;;
5912;SDS011;2982;42.684;23.356;2024-03-08T06:34:35;5.60;;;4.20;;
5912;SDS011;2982;42.684;23.356;2024-03-08T06:37:00;5.00;;;3.93;;
5912;SDS011;2982;42.684;23.356;2024-03-08T06:39:26;4.17;;;3.87;;
5912;SDS011;2982;42.684;23.356;2024-03-08T06:41:52;4.67;;;4.27;;
5912;SDS011;2982;42.684;23.356;2024-03-08T06:44:17;4.30;;;3.97;;
5912;SDS011;2982;42.684;23.356;2024-03-08T06:46:42;4.00;;;3.60;;
5912;SDS011;2982;42.684;23.356;2024-03-08T06:49:09;4.30;;;3.47;;
5912;SDS011;2982;42.684;23.356;2024-03-08T06:51:34;4.30;;;3.90;;
5912;SDS011;2982;42.684;23.356;2024-03-08T06:53:59;4.20;;;3.83;;
5912;SDS011;2982;42.684;23.356;2024-03-08T06:56:25;4.40;;;3.73;;
5912;SDS011;2982;42.684;23.356;2024-03-08T06:58:52;4.43;;;3.80;;
5912;SDS011;2982;42.684;23.356;2024-03-08T07:01:18;6.77;;;5.03;;
5912;SDS011;2982;42.684;23.356;2024-03-08T07:03:43;3.60;;;3.30;;
5912;SDS011;2982;42.684;23.356;2024-03-08T07:06:09;3.57;;;3.27;;
5912;SDS011;2982;42.684;23.356;2024-03-08T07:08:34;4.60;;;4.20;;
5912;SDS011;2982;42.684;23.356;2024-03-08T07:11:00;4.10;;;3.70;;
5912;SDS011;2982;42.684;23.356;2024-03-08T07:13:25;3.90;;;3.60;;
5912;SDS011;2982;42.684;23.356;2024-03-08T07:15:51;3.77;;;3.47;;
5912;SDS011;2982;42.684;23.356;2024-03-08T07:18:16;3.50;;;3.20;;
5912;SDS011;2982;42.684;23.356;2024-03-08T07:20:41;4.33;;;3.80;;
5912;SDS011;2982;42.684;23.356;2024-03-08T07:23:07;4.57;;;3.70;;
5912;SDS011;2982;42.684;23.356;2024-03-08T07:25:32;4.27;;;3.87;;
5912;SDS011;2982;42.684;23.356;2024-03-08T07:27:57;5.17;;;3.57;;
5912;SDS011;2982;42.684;23.356;2024-03-08T07:30:25;3.90;;;3.60;;
5912;SDS011;2982;42.684;23.356;2024-03-08T07:32:51;5.97;;;3.47;;
5912;SDS011;2982;42.684;23.356;2024-03-08T07:35:16;4.90;;;3.20;;
5912;SDS011;2982;42.684;23.356;2024-03-08T07:37:41;2.87;;;2.67;;
5912;SDS011;2982;42.684;23.356;2024-03-08T07:40:07;3.90;;;3.40;;
5912;SDS011;2982;42.684;23.356;2024-03-08T07:42:33;2.77;;;2.57;;
5912;SDS011;2982;42.684;23.356;2024-03-08T07:44:58;3.47;;;3.17;;
5912;SDS011;2982;42.684;23.356;2024-03-08T07:47:23;4.57;;;3.20;;
5912;SDS011;2982;42.684;23.356;2024-03-08T07:49:49;2.80;;;2.60;;
5912;SDS011;2982;42.684;23.356;2024-03-08T07:52:14;3.73;;;3.23;;
5912;SDS011;2982;42.684;23.356;2024-03-08T07:54:41;2.60;;;2.40;;
5912;SDS011;2982;42.684;23.356;2024-03-08T07:57:07;2.43;;;2.23;;
5912;SDS011;2982;42.684;23.356;2024-03-08T07:59:32;5.30;;;2.30;;
5912;SDS011;2982;42.684;23.356;2024-03-08T08:01:57;5.87;;;2.40;;
5912;SDS011;2982;42.684;23.356;2024-03-08T08:04:23;3.07;;;2.40;;
5912;SDS011;2982;42.684;23.356;2024-03-08T08:06:48;2.93;;;2.63;;
5912;SDS011;2982;42.684;23.356;2024-03-08T08:09:14;1.93;;;1.80;;
5912;SDS011;2982;42.684;23.356;2024-03-08T08:11:41;6.53;;;2.13;;
5912;SDS011;2982;42.684;23.356;2024-03-08T08:14:06;2.87;;;1.83;;
5912;SDS011;2982;42.684;23.356;2024-03-08T08:16:32;2.03;;;1.87;;
5912;SDS011;2982;42.684;23.356;2024-03-08T08:18:57;1.90;;;1.80;;
5912;SDS011;2982;42.684;23.356;2024-03-08T08:21:22;2.83;;;2.00;;
5912;SDS011;2982;42.684;23.356;2024-03-08T08:23:48;3.23;;;2.30;;
5912;SDS011;2982;42.684;23.356;2024-03-08T08:26:13;2.50;;;2.00;;
5912;SDS011;2982;42.684;23.356;2024-03-08T08:28:39;3.17;;;2.20;;
5912;SDS011;2982;42.684;23.356;2024-03-08T08:31:04;2.30;;;2.10;;
5912;SDS011;2982;42.684;23.356;2024-03-08T08:33:31;3.33;;;2.03;;
5912;SDS011;2982;42.684;23.356;2024-03-08T08:35:58;1.80;;;1.70;;
5912;SDS011;2982;42.684;23.356;2024-03-08T08:38:23;2.07;;;1.67;;
5912;SDS011;2982;42.684;23.356;2024-03-08T08:40:48;2.10;;;1.90;;
5912;SDS011;2982;42.684;23.356;2024-03-08T08:43:14;1.80;;;1.60;;
5912;SDS011;2982;42.684;23.356;2024-03-08T08:45:39;2.07;;;1.97;;
5912;SDS011;2982;42.684;23.356;2024-03-08T08:48:06;1.43;;;1.33;;
5912;SDS011;2982;42.684;23.356;2024-03-08T08:50:31;1.60;;;1.50;;
5912;SDS011;2982;42.684;23.356;2024-03-08T08:52:57;6.07;;;1.80;;
5912;SDS011;2982;42.684;23.356;2024-03-08T08:55:27;1.70;;;1.60;;
5912;SDS011;2982;42.684;23.356;2024-03-08T08:57:53;1.83;;;1.73;;
5912;SDS011;2982;42.684;23.356;2024-03-08T09:00:19;2.30;;;2.10;;
5912;SDS011;2982;42.684;23.356;2024-03-08T09:02:45;5.20;;;2.58;;
5912;SDS011;2982;42.684;23.356;2024-03-08T09:05:12;1.83;;;1.70;;
5912;SDS011;2982;42.684;23.356;2024-03-08T09:07:37;3.42;;;1.85;;
5912;SDS011;2982;42.684;23.356;2024-03-08T09:10:03;4.75;;;1.73;;
5912;SDS011;2982;42.684;23.356;2024-03-08T09:12:53;1.83;;;1.20;;
5912;SDS011;2982;42.684;23.356;2024-03-08T09:15:19;1.80;;;1.27;;
5912;SDS011;2982;42.684;23.356;2024-03-08T09:25:40;3.78;;;1.83;;
5912;SDS011;2982;42.684;23.356;2024-03-08T09:28:06;4.85;;;1.50;;
5912;SDS011;2982;42.684;23.356;2024-03-08T09:30:32;3.85;;;1.30;;
5912;SDS011;2982;42.684;23.356;2024-03-08T09:32:57;2.58;;;1.70;;
5912;SDS011;2982;42.684;23.356;2024-03-08T09:35:23;1.38;;;1.33;;
5912;SDS011;2982;42.684;23.356;2024-03-08T09:37:48;4.55;;;1.52;;
5912;SDS011;2982;42.684;23.356;2024-03-08T09:40:14;3.30;;;1.33;;
5912;SDS011;2982;42.684;23.356;2024-03-08T09:42:39;1.63;;;1.52;;
5912;SDS011;2982;42.684;23.356;2024-03-08T09:45:09;1.05;;;1.00;;
5912;SDS011;2982;42.684;23.356;2024-03-08T09:47:35;1.55;;;0.90;;
5912;SDS011;2982;42.684;23.356;2024-03-08T09:50:02;2.35;;;1.05;;
5912;SDS011;2982;42.684;23.356;2024-03-08T09:52:29;1.75;;;1.58;;
5912;SDS011;2982;42.684;23.356;2024-03-08T09:54:54;1.83;;;1.20;;
5912;SDS011;2982;42.684;23.356;2024-03-08T09:57:20;1.27;;;0.98;;
5912;SDS011;2982;42.684;23.356;2024-03-08T09:59:46;3.65;;;1.50;;
5912;SDS011;2982;42.684;23.356;2024-03-08T10:02:13;1.27;;;1.08;;
5912;SDS011;2982;42.684;23.356;2024-03-08T10:04:40;1.35;;;1.17;;
5912;SDS011;2982;42.684;23.356;2024-03-08T10:07:05;1.85;;;1.02;;
5912;SDS011;2982;42.684;23.356;2024-03-08T10:09:31;1.83;;;1.13;;
5912;SDS011;2982;42.684;23.356;2024-03-08T10:11:56;1.33;;;1.23;;
5912;SDS011;2982;42.684;23.356;2024-03-08T10:14:22;1.77;;;1.10;;
5912;SDS011;2982;42.684;23.356;2024-03-08T10:16:48;5.18;;;1.13;;
5912;SDS011;2982;42.684;23.356;2024-03-08T10:19:14;1.95;;;1.35;;
5912;SDS011;2982;42.684;23.356;2024-03-08T10:21:49;0.80;;;0.80;;
5912;SDS011;2982;42.684;23.356;2024-03-08T10:24:16;1.00;;;0.90;;
5912;SDS011;2982;42.684;23.356;2024-03-08T10:26:42;1.10;;;1.10;;
5912;SDS011;2982;42.684;23.356;2024-03-08T10:29:07;0.70;;;0.70;;
5912;SDS011;2982;42.684;23.356;2024-03-08T10:31:33;0.98;;;0.80;;
5912;SDS011;2982;42.684;23.356;2024-03-08T10:33:58;1.20;;;1.10;;
5912;SDS011;2982;42.684;23.356;2024-03-08T10:36:24;0.85;;;0.85;;
5912;SDS011;2982;42.684;23.356;2024-03-08T10:38:51;0.50;;;0.50;;
5912;SDS011;2982;42.684;23.356;2024-03-08T10:41:17;0.80;;;0.80;;
5912;SDS011;2982;42.684;23.356;2024-03-08T10:44:04;2.25;;;0.93;;
5912;SDS011;2982;42.684;23.356;2024-03-08T10:47:03;1.33;;;0.95;;
5912;SDS011;2982;42.684;23.356;2024-03-08T10:52:18;0.82;;;0.82;;
5912;SDS011;2982;42.684;23.356;2024-03-08T10:54:43;1.10;;;1.00;;
5912;SDS011;2982;42.684;23.356;2024-03-08T10:57:12;0.90;;;0.82;;
5912;SDS011;2982;42.684;23.356;2024-03-08T10:59:39;1.83;;;1.02;;
5912;SDS011;2982;42.684;23.356;2024-03-08T11:02:05;6.13;;;1.27;;
5912;SDS011;2982;42.684;23.356;2024-03-08T11:04:31;0.60;;;0.60;;
5912;SDS011;2982;42.684;23.356;2024-03-08T11:07:01;0.75;;;0.73;;
5912;SDS011;2982;42.684;23.356;2024-03-08T11:09:30;1.50;;;1.40;;
5912;SDS011;2982;42.684;23.356;2024-03-08T11:14:50;0.80;;;0.80;;
5912;SDS011;2982;42.684;23.356;2024-03-08T11:17:26;0.75;;;0.75;;
5912;SDS011;2982;42.684;23.356;2024-03-08T11:19:57;0.65;;;0.60;;
5912;SDS011;2982;42.684;23.356;2024-03-08T11:22:26;3.17;;;0.70;;
5912;SDS011;2982;42.684;23.356;2024-03-08T11:24:58;0.60;;;0.60;;
5912;SDS011;2982;42.684;23.356;2024-03-08T11:27:30;0.73;;;0.70;;
5912;SDS011;2982;42.684;23.356;2024-03-08T11:30:03;3.00;;;0.90;;
5912;SDS011;2982;42.684;23.356;2024-03-08T11:32:30;1.10;;;0.98;;
5912;SDS011;2982;42.684;23.356;2024-03-08T11:34:55;1.23;;;0.73;;
5912;SDS011;2982;42.684;23.356;2024-03-08T11:37:21;1.37;;;0.50;;
5912;SDS011;2982;42.684;23.356;2024-03-08T11:42:12;0.82;;;0.82;;
5912;SDS011;2982;42.684;23.356;2024-03-08T11:44:38;0.80;;;0.80;;
5912;SDS011;2982;42.684;23.356;2024-03-08T11:47:08;3.20;;;0.70;;
5912;SDS011;2982;42.684;23.356;2024-03-08T11:49:34;1.30;;;1.20;;
5912;SDS011;2982;42.684;23.356;2024-03-08T11:51:59;4.35;;;0.70;;
5912;SDS011;2982;42.684;23.356;2024-03-08T11:54:25;0.80;;;0.80;;
5912;SDS011;2982;42.684;23.356;2024-03-08T11:56:51;0.50;;;0.50;;
5912;SDS011;2982;42.684;23.356;2024-03-08T11:59:17;0.50;;;0.50;;
5912;SDS011;2982;42.684;23.356;2024-03-08T12:02:07;0.50;;;0.50;;
5912;SDS011;2982;42.684;23.356;2024-03-08T12:04:32;2.83;;;0.77;;
5912;SDS011;2982;42.684;23.356;2024-03-08T12:07:01;0.95;;;0.88;;
5912;SDS011;2982;42.684;23.356;2024-03-08T12:09:27;0.60;;;0.60;;
5912;SDS011;2982;42.684;23.356;2024-03-08T12:11:55;0.50;;;0.50;;
5912;SDS011;2982;42.684;23.356;2024-03-08T12:14:23;0.98;;;0.77;;
5912;SDS011;2982;42.684;23.356;2024-03-08T12:16:51;0.47;;;0.47;;
5912;SDS011;2982;42.684;23.356;2024-03-08T12:19:16;0.50;;;0.50;;
5912;SDS011;2982;42.684;23.356;2024-03-08T12:21:45;1.45;;;0.52;;
5912;SDS011;2982;42.684;23.356;2024-03-08T12:24:14;0.70;;;0.60;;
5912;SDS011;2982;42.684;23.356;2024-03-08T12:26:42;1.48;;;0.70;;
5912;SDS011;2982;42.684;23.356;2024-03-08T12:29:15;2.25;;;0.80;;
5912;SDS011;2982;42.684;23.356;2024-03-08T12:31:41;1.03;;;0.60;;
5912;SDS011;2982;42.684;23.356;2024-03-08T12:34:07;1.92;;;0.60;;
5912;SDS011;2982;42.684;23.356;2024-03-08T12:36:33;0.80;;;0.60;;
5912;SDS011;2982;42.684;23.356;2024-03-08T12:39:01;1.27;;;0.80;;
5912;SDS011;2982;42.684;23.356;2024-03-08T12:41:27;3.53;;;0.90;;
5912;SDS011;2982;42.684;23.356;2024-03-08T12:43:52;1.05;;;0.80;;
5912;SDS011;2982;42.684;23.356;2024-03-08T12:46:21;0.63;;;0.63;;
5912;SDS011;2982;42.684;23.356;2024-03-08T12:48:47;0.87;;;0.87;;
5912;SDS011;2982;42.684;23.356;2024-03-08T12:51:13;1.45;;;1.30;;
5912;SDS011;2982;42.684;23.356;2024-03-08T12:53:39;0.43;;;0.43;;
5912;SDS011;2982;42.684;23.356;2024-03-08T12:56:05;0.83;;;0.83;;
5912;SDS011;2982;42.684;23.356;2024-03-08T12:58:31;0.67;;;0.67;;
5912;SDS011;2982;42.684;23.356;2024-03-08T13:00:57;1.03;;;0.70;;
5912;SDS011;2982;42.684;23.356;2024-03-08T13:03:22;0.70;;;0.70;;
5912;SDS011;2982;42.684;23.356;2024-03-08T13:05:48;1.40;;;0.75;;
5912;SDS011;2982;42.684;23.356;2024-03-08T13:08:13;1.00;;;0.90;;
5912;SDS011;2982;42.684;23.356;2024-03-08T13:10:39;0.57;;;0.57;;
5912;SDS011;2982;42.684;23.356;2024-03-08T13:13:05;3.13;;;1.00;;
5912;SDS011;2982;42.684;23.356;2024-03-08T13:15:30;0.52;;;0.52;;
5912;SDS011;2982;42.684;23.356;2024-03-08T13:17:56;0.40;;;0.32;;
5912;SDS011;2982;42.684;23.356;2024-03-08T13:20:26;0.88;;;0.60;;
5912;SDS011;2982;42.684;23.356;2024-03-08T13:22:51;0.85;;;0.73;;
5912;SDS011;2982;42.684;23.356;2024-03-08T13:25:16;0.70;;;0.70;;
5912;SDS011;2982;42.684;23.356;2024-03-08T13:27:42;0.75;;;0.50;;
5912;SDS011;2982;42.684;23.356;2024-03-08T13:30:07;0.60;;;0.60;;
5912;SDS011;2982;42.684;23.356;2024-03-08T13:32:34;0.77;;;0.70;;
5912;SDS011;2982;42.684;23.356;2024-03-08T13:34:59;0.43;;;0.40;;
5912;SDS011;2982;42.684;23.356;2024-03-08T13:37:24;0.50;;;0.50;;
5912;SDS011;2982;42.684;23.356;2024-03-08T13:39:50;2.67;;;0.60;;
5912;SDS011;2982;42.684;23.356;2024-03-08T13:42:15;0.40;;;0.40;;
5912;SDS011;2982;42.684;23.356;2024-03-08T13:44:47;0.40;;;0.40;;
5912;SDS011;2982;42.684;23.356;2024-03-08T13:47:16;0.80;;;0.60;;
5912;SDS011;2982;42.684;23.356;2024-03-08T13:49:42;0.70;;;0.70;;
5912;SDS011;2982;42.684;23.356;2024-03-08T13:52:08;0.82;;;0.82;;
5912;SDS011;2982;42.684;23.356;2024-03-08T13:54:34;1.20;;;0.70;;
5912;SDS011;2982;42.684;23.356;2024-03-08T13:57:01;2.03;;;0.80;;
5912;SDS011;2982;42.684;23.356;2024-03-08T13:59:26;2.07;;;1.23;;
5912;SDS011;2982;42.684;23.356;2024-03-08T14:01:52;1.88;;;0.95;;
5912;SDS011;2982;42.684;23.356;2024-03-08T14:04:17;0.73;;;0.60;;
5912;SDS011;2982;42.684;23.356;2024-03-08T14:06:43;0.90;;;0.73;;
5912;SDS011;2982;42.684;23.356;2024-03-08T14:09:08;2.92;;;1.00;;
5912;SDS011;2982;42.684;23.356;2024-03-08T14:11:34;1.20;;;0.70;;
5912;SDS011;2982;42.684;23.356;2024-03-08T14:13:59;0.85;;;0.73;;
5912;SDS011;2982;42.684;23.356;2024-03-08T14:16:24;5.93;;;1.40;;
5912;SDS011;2982;42.684;23.356;2024-03-08T14:18:50;2.67;;;1.13;;
5912;SDS011;2982;42.684;23.356;2024-03-08T14:21:15;1.80;;;1.07;;
5912;SDS011;2982;42.684;23.356;2024-03-08T14:23:42;3.63;;;1.37;;
5912;SDS011;2982;42.684;23.356;2024-03-08T14:28:48;0.97;;;0.97;;
5912;SDS011;2982;42.684;23.356;2024-03-08T14:31:14;0.83;;;0.83;;
5912;SDS011;2982;42.684;23.356;2024-03-08T14:33:40;0.87;;;0.87;;
5912;SDS011;2982;42.684;23.356;2024-03-08T14:36:05;4.25;;;1.38;;
5912;SDS011;2982;42.684;23.356;2024-03-08T14:38:30;0.70;;;0.70;;
5912;SDS011;2982;42.684;23.356;2024-03-08T14:40:56;1.00;;;1.00;;
5912;SDS011;2982;42.684;23.356;2024-03-08T14:43:24;1.20;;;1.10;;
5912;SDS011;2982;42.684;23.356;2024-03-08T14:45:50;7.40;;;1.50;;
5912;SDS011;2982;42.684;23.356;2024-03-08T14:48:15;3.23;;;1.10;;
5912;SDS011;2982;42.684;23.356;2024-03-08T14:50:41;2.17;;;1.30;;
5912;SDS011;2982;42.684;23.356;2024-03-08T14:53:07;2.53;;;1.30;;
5912;SDS011;2982;42.684;23.356;2024-03-08T14:55:32;1.83;;;1.30;;
5912;SDS011;2982;42.684;23.356;2024-03-08T14:57:58;1.40;;;1.30;;
5912;SDS011;2982;42.684;23.356;2024-03-08T15:00:23;1.55;;;1.42;;
5912;SDS011;2982;42.684;23.356;2024-03-08T15:02:49;3.77;;;2.30;;
5912;SDS011;2982;42.684;23.356;2024-03-08T15:05:14;1.23;;;1.13;;
5912;SDS011;2982;42.684;23.356;2024-03-08T15:07:40;1.33;;;1.23;;
5912;SDS011;2982;42.684;23.356;2024-03-08T15:10:09;1.70;;;1.60;;
5912;SDS011;2982;42.684;23.356;2024-03-08T15:12:34;3.43;;;2.90;;